Главная страница
METAR-TAF:

METAR-TAF

Аэропорты :

Самсун, Турция

широта: 41-15-15N, долгота: 036-34-03E, высота над уровнем моря: 5 м

Текущие метеонаблюдения

Эта сводка был подготовлена 56 минут назад, в 20:50 UTC
Ветер 7 Узел от южный, изменяющийся между восточно-северо-восточный и южный
Температура 13°C
Влажность 41%
Давление 1012 hPa
Видимость 10 км и более
Нет облачности ниже 1500 м, и нет кучево-дождевой облачности

METAR: LTFH 232050Z 18007KT 070V190 CAVOK 13/M00 Q1012 NOSIG

Время: 00:46 (21:46 UTC)

Прогноз

Эта сводка был подготовлена 2 часа и 6 минут назад, в 19:40 UTC
Прогноз действительный с 23-го 21 UTC до 24-го 06 UTC
Ветер 16 Узел от южный-юго-западный
Видимость 10 км и более
Нет облачности ниже 1500 м, и нет кучево-дождевой облачности

TAF: LTFH 231940Z 2321/2406 20016KT CAVOK

Метеонаблюдения и прогнозы для более 4000 аэропортов (сводки METAR и TAF).

Имеющиеся станции представлены на карте желтыми и красными точками.

Чтобы увидеть название станции, наведите на нее мышь.

Затем щелкните, чтобы увидеть метеонаблюдения и метеопрогнозы.

Управление картой: чтобы увеличить масштаб, щелкните зеленые кнопки с черным крестиком; чтобы уменьшить масштаб, щелкните зеленую кнопку с тире; для просмотра соседних карт щелкайте зеленые стрелки.


METAR-TAF: